YKDN weather

Kondinin Airport
Western Australia, Australia

Public forecast

Using degrees Celsius for public forecast. Weather courtesy of forecast.io.

METAR (pilot weather report)

Closest report is Perth International Airport, 121.8 nm (225.6 km) WNW. Retrieved 2019/04/24 23:30 UTC (0 seconds ago):

YPPH 242330Z 08012KT CAVOK 16/10 Q1025 NOSIG

TAF (pilot weather forecast)

Closest forecast is Perth International Airport, 121.8 nm (225.6 km) WNW. Retrieved 2019/04/24 18:00 UTC (5 hours ago):

TAF YPPH 241725Z 2418/2524 09008KT CAVOK FM250400 09010KT 9999 FU NSC FM251200 12010KT CAVOK FM251600 08012G20KT CAVOK